|

机场天气预报 (TAF)

机场天气预报 (TAF) 载述关于某个机场在预测期内预料会出现的气象要素。

香港天文台在 17 年 04 月 24 日 13 时 00 分最新发出的香港国际机场天气预报

TAF VHHH 240500Z 2406/2512 10010KT 7000 FEW015 SCT035 TX24/2406Z TX25/2506Z TN21/2423Z TEMPO 2406/2415 08015G25KT 3500 SHRA FEW010CB SCT025 TEMPO 2415/2423 4000 SHRA TEMPO 2423/2506 VRB15G25KT 2000 TSRA SHRA FEW010CB SCT025 TEMPO 2506/2512 16010KT 4000 SHRA=

(下次更新时间:17年04月24日19时00分)

机场天气预报电码经解码后:-

香港天文台发出 2017 年 04 月 24 日 06 协调世界时 至 2017 年 04 月 25 日 12 协调世界时 的机场天气预报:
 

时间(协调世界时) 能见度 天气状况 云层 云层高度
2017 年 04 月 24 日 06 时 至 2017 年 04 月 25 日 12 时 东风 (100 o) 10 海里/小时 7 公里 无重要天气状况
1-2
3-4
1500 呎
3500 呎
2017 年 04 月 24 日 06 时 至 15 时 期间间中 东风 (080 o) 15 海里/小时,阵风达 25 海里/小时 3500 米 骤雨
1-2 积雨云
3-4
1000 呎
2500 呎
2017 年 04 月 24 日 15 时 至 23 时 期间间中 东风 (100 o) 10 海里/小时 4000 米 骤雨
1-2
3-4
1500 呎
3500 呎
2017 年 04 月 24 日 23 时 至 2017 年 04 月 25 日 06 时 期间间中 15 海里/小时,阵风达 25 海里/小时 (风向不定) 2000 米 雷暴及雨, 骤雨
1-2 积雨云
3-4
1000 呎
2500 呎
2017 年 04 月 25 日 06 时 至 12 时 期间间中 东南偏南风 (160 o) 10 海里/小时 4000 米 骤雨
1-2
3-4
1500 呎
3500 呎

时间(协调世界时) 气温
2017 年 04 月 24 日 06 时
最高24 oC
2017 年 04 月 25 日 06 时
最高25 oC
2017 年 04 月 24 日 23 时
最低21 oC

份: 云层是以估计天空被云遮蔽之总面积来评定。把天空分为八份,1 份即是八份之一的天空被云遮蔽,2 份即是八份之二的天空被云遮蔽,如此类推。
  0 份 = 天朗气清,1-2 份 = 稀薄云层,3-4 份 = 零散云层,5-7 份 = 疏松云层,8 份 = 天色阴暗。
若想进一步了解机场天气预报(TAF)的编码,请参看剖析TAF电码的意义
若想进一步了解云,请参看香港常见的云
 
香港国际机场航空天气报告资料 本港地区航空天气预报
 
版权及声明